Hallam, Nebraska
Current Conditions -  °F | °C
As of 12:15 AM on Saturday 29 Nov 2014 (Local Time) from KBIE Reporting Station
Clear Clear  
Wind Chill: 44°   Ceiling: Unl
Heat Index: 47°   Visibility: 10mi
Dew Point: 35°   Wind: 7mph
Humidity: 62%   Direction: 200°SSW
Pressure: 29.64"   Gusts: NA
Location:  40.54°N, 96.79°W
Report Text: KBIE 290615Z AUTO 20006KT 10SM CLR 08/02 A2964 RMK AO2 T00840015
Loading
Personal Weather Stations






























Interactive Weather Map New forecast layout! Learn more

10-Day Weather Forecast

Advertisements
Track Severe Weather on mobile